createdAt,value
2019-05-30T00:00:16.080Z,100952.09
2019-05-30T00:02:33.287Z,100953.05
2019-05-30T00:05:02.750Z,100955.55
2019-05-30T00:07:31.922Z,100956.48
2019-05-30T00:10:02.819Z,100950.09
2019-05-30T00:12:32.184Z,100957.02
2019-05-30T00:15:01.332Z,100956.08
2019-05-30T00:17:30.508Z,100949.94
2019-05-30T00:20:01.004Z,100949.88
2019-05-30T00:22:30.126Z,100949.59
2019-05-30T00:25:00.026Z,100949.09
2019-05-30T00:27:29.409Z,100947.48
2019-05-30T00:29:59.286Z,100951.37
2019-05-30T00:32:28.652Z,100949.88
2019-05-30T00:34:58.135Z,100961.98
2019-05-30T00:37:27.243Z,100965.44
2019-05-30T00:39:57.759Z,100956.75
2019-05-30T00:42:26.921Z,100952.75
2019-05-30T00:44:56.111Z,100951.56
2019-05-30T00:47:25.149Z,100948.92
2019-05-30T00:49:54.481Z,100957.38
2019-05-30T00:52:23.574Z,100953.41
2019-05-30T00:54:52.840Z,100965.91
2019-05-30T00:57:22.048Z,100963.59
2019-05-30T00:59:51.158Z,100959.83
2019-05-30T01:02:20.536Z,100961.75
2019-05-30T01:04:49.630Z,100963.94
2019-05-30T01:07:18.836Z,100965.09
2019-05-30T01:09:48.162Z,100964.52
2019-05-30T01:12:17.242Z,100958.03
2019-05-30T01:14:46.674Z,100960.70
2019-05-30T01:17:15.752Z,100963.16
2019-05-30T01:19:44.995Z,100961.16
2019-05-30T01:22:14.332Z,100963.55
2019-05-30T01:24:43.756Z,100966.22
2019-05-30T01:27:12.823Z,100961.17
2019-05-30T01:29:41.853Z,100960.65
2019-05-30T01:32:30.089Z,100957.72
2019-05-30T01:35:01.954Z,100960.90
2019-05-30T01:37:31.195Z,100960.31
2019-05-30T01:40:00.279Z,100961.63
2019-05-30T01:42:29.343Z,100953.19
2019-05-30T01:45:00.121Z,100952.44
2019-05-30T01:47:29.389Z,100954.89
2019-05-30T01:49:58.429Z,100957.77
2019-05-30T01:52:27.512Z,100955.63
2019-05-30T01:54:56.535Z,100951.72
2019-05-30T01:57:25.756Z,100948.38
2019-05-30T01:59:54.924Z,100955.19
2019-05-30T02:02:24.235Z,100951.11
2019-05-30T02:04:53.319Z,100956.48
2019-05-30T02:07:22.425Z,100953.30
2019-05-30T02:09:52.083Z,100955.50
2019-05-30T02:12:21.305Z,100956.23
2019-05-30T02:14:50.471Z,100953.24
2019-05-30T02:17:19.515Z,100956.90
2019-05-30T02:19:48.781Z,100959.29
2019-05-30T02:22:18.025Z,100956.84
2019-05-30T02:24:47.189Z,100960.86
2019-05-30T02:27:16.498Z,100957.52
2019-05-30T02:29:45.545Z,100962.20
2019-05-30T02:32:14.752Z,100960.07
2019-05-30T02:34:44.035Z,100965.44
2019-05-30T02:37:13.321Z,100968.17
2019-05-30T02:39:42.608Z,100966.71
2019-05-30T02:42:11.883Z,100966.26
2019-05-30T02:44:40.958Z,100966.45
2019-05-30T02:47:11.585Z,100962.45
2019-05-30T02:49:40.821Z,100968.61
2019-05-30T02:52:10.821Z,100969.02
2019-05-30T02:54:40.948Z,100963.43
2019-05-30T02:57:10.674Z,100958.20
2019-05-30T02:59:41.361Z,100960.03
2019-05-30T03:02:15.218Z,100964.91
2019-05-30T03:04:41.527Z,100969.59
2019-05-30T03:07:12.533Z,100966.11
2019-05-30T03:09:41.963Z,100973.48
2019-05-30T03:12:13.200Z,100970.67
2019-05-30T03:14:42.040Z,100964.09
2019-05-30T03:17:12.584Z,100969.39
2019-05-30T03:19:41.844Z,100973.59
2019-05-30T03:22:12.239Z,100979.56
2019-05-30T03:24:41.835Z,100979.92
2019-05-30T03:27:12.325Z,100983.33
2019-05-30T03:29:42.066Z,100985.83
2019-05-30T03:32:56.181Z,100984.00
2019-05-30T03:34:43.735Z,100988.95
2019-05-30T03:37:23.144Z,100989.18
2019-05-30T03:39:44.478Z,100990.38
2019-05-30T03:42:15.687Z,100996.41
2019-05-30T03:44:44.774Z,101000.30
2019-05-30T03:47:15.675Z,101001.11
2019-05-30T03:49:46.214Z,101001.81
2019-05-30T03:52:17.543Z,101006.29
2019-05-30T03:54:47.262Z,101006.10
2019-05-30T03:57:22.988Z,101010.94
2019-05-30T03:59:57.963Z,101007.76
2019-05-30T04:02:55.363Z,101015.48
2019-05-30T04:05:14.180Z,101016.96
2019-05-30T04:07:48.579Z,101021.11
2019-05-30T04:10:20.005Z,101016.29
2019-05-30T04:13:00.770Z,101023.62
2019-05-30T04:15:33.835Z,101022.00
2019-05-30T04:18:02.913Z,101020.44
2019-05-30T04:20:32.379Z,101024.60
2019-05-30T04:23:01.563Z,101026.75
2019-05-30T04:25:30.805Z,101022.31
2019-05-30T04:28:00.354Z,101026.06
2019-05-30T04:30:29.396Z,101023.47
2019-05-30T04:33:16.203Z,101028.16
2019-05-30T04:35:29.604Z,101028.61
2019-05-30T04:37:58.877Z,101032.27
2019-05-30T04:40:28.208Z,101029.09
2019-05-30T04:42:57.286Z,101027.97
2019-05-30T04:45:28.367Z,101033.47
2019-05-30T04:47:57.710Z,101033.91
2019-05-30T04:50:26.795Z,101029.41
2019-05-30T04:52:56.265Z,101040.95
2019-05-30T04:55:25.298Z,101036.06
2019-05-30T04:57:54.633Z,101042.09
2019-05-30T05:00:23.939Z,101036.98
2019-05-30T05:02:53.138Z,101039.66
2019-05-30T05:05:26.285Z,101046.16
2019-05-30T05:07:52.963Z,101040.80
2019-05-30T05:10:22.528Z,101044.64
2019-05-30T05:12:51.825Z,101042.64
2019-05-30T05:15:22.631Z,101039.48
2019-05-30T05:17:51.694Z,101043.63
2019-05-30T05:20:21.469Z,101048.20
2019-05-30T05:22:50.630Z,101049.95
2019-05-30T05:25:19.796Z,101048.36
2019-05-30T05:27:49.158Z,101052.11
2019-05-30T05:30:18.372Z,101052.48
2019-05-30T05:32:47.407Z,101060.83
2019-05-30T05:35:16.868Z,101060.02
2019-05-30T05:37:45.924Z,101062.47
2019-05-30T05:40:16.047Z,101063.84
2019-05-30T05:42:45.523Z,101062.91
2019-05-30T05:45:14.635Z,101074.37
2019-05-30T05:47:43.860Z,101071.14
2019-05-30T05:50:13.638Z,101073.32
2019-05-30T05:52:42.660Z,101081.06
2019-05-30T05:55:12.477Z,101072.08
2019-05-30T05:57:41.662Z,101080.45
2019-05-30T06:00:11.166Z,101079.84
2019-05-30T06:02:40.247Z,101075.39
2019-05-30T06:05:09.401Z,101080.48
2019-05-30T06:07:38.541Z,101092.09
2019-05-30T06:10:08.002Z,101088.48
2019-05-30T06:12:37.187Z,101089.93
2019-05-30T06:15:06.609Z,101089.06
2019-05-30T06:17:35.758Z,101085.95
2019-05-30T06:20:05.329Z,101091.31
2019-05-30T06:22:34.377Z,101096.60
2019-05-30T06:25:04.307Z,101101.83
2019-05-30T06:27:33.402Z,101105.58
2019-05-30T06:30:02.528Z,101097.06
2019-05-30T06:32:31.680Z,101106.31
2019-05-30T06:35:01.019Z,101104.61
2019-05-30T06:37:30.266Z,101104.42
2019-05-30T06:39:59.578Z,101105.24
2019-05-30T06:42:30.202Z,101108.75
2019-05-30T06:44:59.384Z,101114.20
2019-05-30T06:47:28.525Z,101107.71
2019-05-30T06:49:57.606Z,101117.89
2019-05-30T06:52:27.133Z,101108.42
2019-05-30T06:54:56.186Z,101105.50
2019-05-30T06:57:25.437Z,101104.38
2019-05-30T06:59:54.503Z,101105.84
2019-05-30T07:02:24.243Z,101105.71
2019-05-30T07:04:54.216Z,101108.69
2019-05-30T07:07:25.041Z,101109.84
2019-05-30T07:09:54.339Z,101110.02
2019-05-30T07:12:23.367Z,101107.22
2019-05-30T07:14:52.424Z,101110.98
2019-05-30T07:17:21.701Z,101113.59
2019-05-30T07:19:50.849Z,101118.04
2019-05-30T07:22:20.084Z,101117.94
2019-05-30T07:24:49.394Z,101124.47
2019-05-30T07:27:18.464Z,101124.86
2019-05-30T07:29:47.841Z,101125.47
2019-05-30T07:32:16.989Z,101123.60
2019-05-30T07:34:46.279Z,101121.52
2019-05-30T07:37:15.423Z,101116.98
2019-05-30T07:39:44.770Z,101121.55
2019-05-30T07:42:15.743Z,101126.23
2019-05-30T07:44:44.936Z,101129.22
2019-05-30T07:47:14.166Z,101129.04
2019-05-30T07:49:43.500Z,101130.45
2019-05-30T07:52:12.719Z,101124.13
2019-05-30T07:54:41.919Z,101126.45
2019-05-30T07:57:11.214Z,101125.00
2019-05-30T07:59:40.367Z,101132.47
2019-05-30T08:02:09.642Z,101135.60
2019-05-30T08:04:42.050Z,101140.01
2019-05-30T08:07:11.117Z,101137.53
2019-05-30T08:09:40.520Z,101138.97
2019-05-30T08:12:09.647Z,101136.34
2019-05-30T08:14:39.685Z,101127.58
2019-05-30T08:17:08.964Z,101128.98
2019-05-30T08:19:38.302Z,101133.13
2019-05-30T08:22:07.468Z,101135.33
2019-05-30T08:24:36.571Z,101130.36
2019-05-30T08:27:06.063Z,101133.00
2019-05-30T08:29:36.365Z,101126.73
2019-05-30T08:32:05.743Z,101126.31
2019-05-30T08:34:34.748Z,101124.59
2019-05-30T08:37:03.838Z,101119.38
2019-05-30T08:39:33.019Z,101125.97
2019-05-30T08:42:02.151Z,101129.30
2019-05-30T08:44:31.638Z,101127.09
2019-05-30T08:47:00.796Z,101126.25
2019-05-30T08:49:29.945Z,101128.96
2019-05-30T08:51:58.981Z,101115.58
2019-05-30T08:54:28.228Z,101121.13
2019-05-30T08:56:57.325Z,101120.99
2019-05-30T08:59:26.483Z,101115.09
2019-05-30T09:01:55.776Z,101116.17
2019-05-30T09:04:25.178Z,101112.97
2019-05-30T09:06:54.362Z,101112.28
2019-05-30T09:09:23.492Z,101108.07
2019-05-30T09:11:52.686Z,101110.11
2019-05-30T09:14:22.052Z,101107.39
2019-05-30T09:16:51.208Z,101098.85
2019-05-30T09:19:20.439Z,101097.69
2019-05-30T09:21:49.570Z,101095.78
2019-05-30T09:24:18.813Z,101092.73
2019-05-30T09:26:50.318Z,101087.41
2019-05-30T09:29:19.100Z,101092.62
2019-05-30T09:31:48.737Z,101093.42
2019-05-30T09:34:17.887Z,101093.05
2019-05-30T09:36:47.015Z,101098.72
2019-05-30T09:39:16.066Z,101091.70
2019-05-30T09:41:45.713Z,101089.79
2019-05-30T09:44:14.804Z,101090.02
2019-05-30T09:46:44.223Z,101100.29
2019-05-30T09:49:13.350Z,101099.24
2019-05-30T09:51:43.616Z,101103.66
2019-05-30T09:54:13.348Z,101101.23
2019-05-30T09:56:43.868Z,101100.97
2019-05-30T09:59:13.704Z,101084.00
2019-05-30T10:01:44.247Z,101086.55
2019-05-30T10:04:13.463Z,101084.58
2019-05-30T10:06:43.592Z,101082.98
2019-05-30T10:09:13.654Z,101082.81
2019-05-30T10:11:44.195Z,101079.23
2019-05-30T10:14:14.307Z,101069.59
2019-05-30T10:16:47.561Z,101066.95
2019-05-30T10:19:14.431Z,101073.00
2019-05-30T10:21:45.452Z,101072.78
2019-05-30T10:24:14.341Z,101067.94
2019-05-30T10:26:43.367Z,101065.55
2019-05-30T10:29:12.400Z,101066.09
2019-05-30T10:31:41.576Z,101063.59
2019-05-30T10:34:10.742Z,101067.70
2019-05-30T10:36:44.295Z,101076.28
2019-05-30T10:39:11.029Z,101071.11
2019-05-30T10:41:40.358Z,101068.09
2019-05-30T10:44:09.436Z,101066.18
2019-05-30T10:46:48.622Z,101063.34
2019-05-30T10:49:31.512Z,101055.39
2019-05-30T10:51:49.604Z,101056.80
2019-05-30T10:54:19.132Z,101060.12
2019-05-30T10:56:48.781Z,101053.30
2019-05-30T10:59:19.496Z,101054.94
2019-05-30T11:01:50.233Z,101050.53
2019-05-30T11:04:20.139Z,101049.19
2019-05-30T11:07:11.060Z,101057.98
2019-05-30T11:09:36.316Z,101052.75
2019-05-30T11:12:05.473Z,101050.02
2019-05-30T11:14:34.526Z,101043.67
2019-05-30T11:17:03.786Z,101047.78
2019-05-30T11:19:32.853Z,101038.22
2019-05-30T11:22:01.927Z,101038.23
2019-05-30T11:24:31.274Z,100943.05
2019-05-30T11:27:00.363Z,101026.68
2019-05-30T11:29:29.816Z,101027.75
2019-05-30T11:31:59.135Z,101023.14
2019-05-30T11:34:28.222Z,101025.61
2019-05-30T11:36:57.352Z,101027.50
2019-05-30T11:39:26.435Z,101016.26
2019-05-30T11:41:55.778Z,101018.95
2019-05-30T11:44:25.052Z,101021.44
2019-05-30T11:46:54.223Z,101019.54
2019-05-30T11:49:23.537Z,101011.89
2019-05-30T11:51:53.675Z,101015.99
2019-05-30T11:54:23.001Z,101012.92
2019-05-30T11:56:52.089Z,101012.41
2019-05-30T11:59:21.382Z,101009.67
2019-05-30T12:01:50.456Z,101014.60
2019-05-30T12:04:20.834Z,101011.03
2019-05-30T12:06:51.138Z,101011.53
2019-05-30T12:09:20.858Z,101009.03
2019-05-30T12:11:50.964Z,101010.94
2019-05-30T12:14:21.600Z,101009.00
2019-05-30T12:16:51.139Z,101008.22
2019-05-30T12:19:20.428Z,101013.17
2019-05-30T12:21:49.559Z,101010.13
2019-05-30T12:24:18.605Z,101000.00
2019-05-30T12:26:47.722Z,101009.61
2019-05-30T12:29:16.859Z,101012.36
2019-05-30T12:31:45.988Z,101004.12
2019-05-30T12:34:15.293Z,101007.97
2019-05-30T12:36:44.397Z,101002.73
2019-05-30T12:39:13.788Z,101002.97
2019-05-30T12:41:43.088Z,101000.19
2019-05-30T12:44:12.115Z,101002.91
2019-05-30T12:46:41.485Z,101004.58
2019-05-30T12:49:10.586Z,101004.58
2019-05-30T12:51:39.861Z,101002.20
2019-05-30T12:54:09.139Z,100998.08
2019-05-30T12:56:38.234Z,101006.37
2019-05-30T12:59:07.543Z,101003.11
2019-05-30T13:01:36.730Z,101002.02
2019-05-30T13:04:07.255Z,101000.64
2019-05-30T13:06:36.445Z,101004.75
2019-05-30T13:09:08.422Z,101005.60
2019-05-30T13:11:37.955Z,101009.70
2019-05-30T13:14:07.368Z,101009.16
2019-05-30T13:16:36.892Z,101003.39
2019-05-30T13:19:06.391Z,100998.48
2019-05-30T13:21:35.571Z,101008.88
2019-05-30T13:24:06.027Z,101003.10
2019-05-30T13:26:35.364Z,101003.37
2019-05-30T13:29:04.491Z,101003.95
2019-05-30T13:31:33.694Z,100990.48
2019-05-30T13:34:03.349Z,100996.24
2019-05-30T13:36:32.719Z,100999.80
2019-05-30T13:39:03.150Z,100996.53
2019-05-30T13:41:32.453Z,101000.66
2019-05-30T13:44:04.410Z,101001.45
2019-05-30T13:46:32.396Z,100992.70
2019-05-30T13:49:02.602Z,101011.34
2019-05-30T13:51:31.956Z,101009.35
2019-05-30T13:54:01.136Z,101006.36
2019-05-30T13:56:30.640Z,100995.94
2019-05-30T13:58:59.783Z,101009.64
2019-05-30T14:01:28.899Z,101011.84
2019-05-30T14:03:58.243Z,100998.39
2019-05-30T14:06:27.439Z,101004.47
2019-05-30T14:08:56.590Z,101002.55
2019-05-30T14:11:25.655Z,101007.51
2019-05-30T14:13:54.851Z,101005.60
2019-05-30T14:16:24.180Z,101000.64
2019-05-30T14:18:53.412Z,101011.32
2019-05-30T14:21:22.684Z,101005.83
2019-05-30T14:23:51.839Z,100999.27
2019-05-30T14:26:21.037Z,101002.55
2019-05-30T14:28:50.288Z,101003.88
2019-05-30T14:31:19.414Z,101009.09
2019-05-30T14:33:48.811Z,101002.18
2019-05-30T14:36:18.140Z,101003.80
2019-05-30T14:38:57.894Z,100998.88
2019-05-30T14:41:18.333Z,101012.04
2019-05-30T14:43:47.380Z,101010.75
2019-05-30T14:46:16.795Z,101011.58
2019-05-30T14:48:45.933Z,101010.73
2019-05-30T14:51:15.129Z,101007.72
2019-05-30T14:53:44.481Z,101009.56
2019-05-30T14:56:13.691Z,101005.80
2019-05-30T14:58:42.798Z,101013.48
2019-05-30T15:01:13.396Z,101011.02
2019-05-30T15:03:43.171Z,101004.19
2019-05-30T15:06:15.877Z,101000.62
2019-05-30T15:08:44.777Z,101000.34
2019-05-30T15:11:13.947Z,100995.69
2019-05-30T15:13:43.289Z,100995.70
2019-05-30T15:16:13.006Z,100996.50
2019-05-30T15:18:42.486Z,100982.77
2019-05-30T15:21:12.536Z,100989.34
2019-05-30T15:23:41.871Z,100989.58
2019-05-30T15:26:12.089Z,100988.83
2019-05-30T15:28:41.383Z,100985.80
2019-05-30T15:31:10.584Z,100987.92
2019-05-30T15:33:39.652Z,100874.33
2019-05-30T15:36:09.075Z,100990.13
2019-05-30T15:38:38.246Z,100998.88
2019-05-30T15:41:08.664Z,100997.62
2019-05-30T15:43:37.995Z,101006.37
2019-05-30T15:46:07.821Z,101001.42
2019-05-30T15:48:37.014Z,101003.33
2019-05-30T15:51:06.251Z,101001.66
2019-05-30T15:53:35.401Z,101002.80
2019-05-30T15:56:04.805Z,101000.02
2019-05-30T15:58:34.008Z,100995.92
2019-05-30T16:01:03.101Z,100995.16
2019-05-30T16:03:32.374Z,100996.48
2019-05-30T16:06:01.460Z,100994.02
2019-05-30T16:08:32.683Z,100995.99
2019-05-30T16:11:02.168Z,100990.25
2019-05-30T16:13:31.389Z,100988.92
2019-05-30T16:16:00.452Z,100993.18
2019-05-30T16:18:29.935Z,100987.09
2019-05-30T16:20:59.058Z,100989.48
2019-05-30T16:23:28.440Z,100991.58
2019-05-30T16:25:57.849Z,100993.22
2019-05-30T16:28:27.474Z,100990.47
2019-05-30T16:30:56.879Z,100992.62
2019-05-30T16:33:26.395Z,100993.46
2019-05-30T16:35:57.416Z,100997.31
2019-05-30T16:38:26.992Z,100991.58
2019-05-30T16:40:56.714Z,100987.67
2019-05-30T16:43:26.623Z,100983.51
2019-05-30T16:45:56.110Z,100989.30
2019-05-30T16:48:26.634Z,100990.67
2019-05-30T16:50:55.790Z,100989.52
2019-05-30T16:53:25.912Z,100994.14
2019-05-30T16:55:55.166Z,100991.06
2019-05-30T16:58:24.383Z,100988.85
2019-05-30T17:00:53.471Z,100989.39
2019-05-30T17:03:23.719Z,100990.23
2019-05-30T17:05:53.986Z,100993.81
2019-05-30T17:08:24.491Z,100991.34
2019-05-30T17:10:53.862Z,100985.87
2019-05-30T17:13:23.822Z,100992.50
2019-05-30T17:15:52.993Z,100990.63
2019-05-30T17:18:22.419Z,100995.52
2019-05-30T17:20:51.850Z,100997.91
2019-05-30T17:23:21.368Z,100991.02
2019-05-30T17:25:50.426Z,100989.38
2019-05-30T17:28:20.344Z,100993.84
2019-05-30T17:30:49.771Z,100989.80
2019-05-30T17:33:21.541Z,100987.05
2019-05-30T17:35:50.179Z,100985.94
2019-05-30T17:38:20.405Z,100989.37
2019-05-30T17:40:49.838Z,100992.11
2019-05-30T17:43:19.289Z,100995.61
2019-05-30T17:45:48.337Z,100994.45
2019-05-30T17:48:17.524Z,100990.88
2019-05-30T17:50:46.590Z,100993.81
2019-05-30T17:53:15.854Z,100990.14
2019-05-30T17:55:45.139Z,100997.52
2019-05-30T17:58:14.253Z,100995.54
2019-05-30T18:00:43.486Z,101000.37
2019-05-30T18:03:12.857Z,100998.63
2019-05-30T18:05:41.960Z,101004.59
2019-05-30T18:08:11.130Z,101004.61
2019-05-30T18:10:52.969Z,101011.09
2019-05-30T18:13:11.511Z,101000.77
2019-05-30T18:15:40.829Z,101005.10
2019-05-30T18:18:09.927Z,101008.16
2019-05-30T18:20:48.292Z,101008.41
2019-05-30T18:23:11.326Z,101008.58
2019-05-30T18:25:40.372Z,101004.68
2019-05-30T18:28:09.518Z,101007.36
2019-05-30T18:30:40.958Z,101012.80
2019-05-30T18:33:09.999Z,101012.47
2019-05-30T18:35:39.298Z,101013.56
2019-05-30T18:38:08.568Z,101016.80
2019-05-30T18:40:39.643Z,101023.61
2019-05-30T18:43:08.837Z,101015.93
2019-05-30T18:45:40.008Z,101010.22
2019-05-30T18:48:11.106Z,101017.49
2019-05-30T18:50:40.784Z,101022.20
2019-05-30T18:53:10.562Z,101025.41
2019-05-30T18:55:39.741Z,101028.83
2019-05-30T18:58:09.094Z,101026.52
2019-05-30T19:00:38.450Z,101031.61
2019-05-30T19:03:07.575Z,101028.27
2019-05-30T19:05:37.102Z,101034.16
2019-05-30T19:08:06.904Z,101030.20
2019-05-30T19:10:36.588Z,101040.21
2019-05-30T19:13:05.873Z,101037.64
2019-05-30T19:15:34.947Z,101044.67
2019-05-30T19:18:04.020Z,101048.14
2019-05-30T19:20:33.913Z,101039.59
2019-05-30T19:23:03.573Z,101043.11
2019-05-30T19:25:33.970Z,101047.48
2019-05-30T19:28:03.226Z,101043.89
2019-05-30T19:30:32.862Z,101047.38
2019-05-30T19:33:02.083Z,101052.48
2019-05-30T19:35:31.444Z,101053.64
2019-05-30T19:38:00.703Z,101061.78
2019-05-30T19:40:29.902Z,101058.42
2019-05-30T19:42:58.991Z,101068.21
2019-05-30T19:45:28.128Z,101064.02
2019-05-30T19:47:57.450Z,101066.36
2019-05-30T19:50:26.577Z,101065.17
2019-05-30T19:52:56.039Z,101071.59
2019-05-30T19:55:25.184Z,101066.56
2019-05-30T19:57:54.255Z,101064.48
2019-05-30T20:00:23.836Z,101074.23
2019-05-30T20:02:52.969Z,101065.91
2019-05-30T20:05:22.138Z,101064.46
2019-05-30T20:07:51.299Z,101064.06
2019-05-30T20:10:20.570Z,101072.64
2019-05-30T20:12:49.826Z,101071.72
2019-05-30T20:15:18.994Z,101073.27
2019-05-30T20:17:48.179Z,101069.39
2019-05-30T20:20:17.670Z,101072.35
2019-05-30T20:22:46.840Z,101075.59
2019-05-30T20:25:16.227Z,101076.31
2019-05-30T20:27:45.305Z,101082.23
2019-05-30T20:30:15.039Z,101077.22
2019-05-30T20:32:44.258Z,101078.54
2019-05-30T20:35:13.975Z,101080.06
2019-05-30T20:37:44.907Z,101078.60
2019-05-30T20:40:14.446Z,101079.10
2019-05-30T20:42:43.506Z,101079.73
2019-05-30T20:45:14.478Z,101084.20
2019-05-30T20:47:44.458Z,101087.43
2019-05-30T20:50:15.164Z,101083.59
2019-05-30T20:52:45.630Z,101084.87
2019-05-30T20:55:16.589Z,101092.72
2019-05-30T20:57:46.908Z,101090.89
2019-05-30T21:00:16.978Z,101093.48
2019-05-30T21:02:47.161Z,101096.72
2019-05-30T21:05:16.865Z,101095.91
2019-05-30T21:07:46.610Z,101099.80
2019-05-30T21:10:15.930Z,101096.66
2019-05-30T21:12:47.794Z,101098.44
2019-05-30T21:15:16.712Z,101095.58
2019-05-30T21:17:46.867Z,101097.54
2019-05-30T21:20:16.424Z,101101.13
2019-05-30T21:22:46.696Z,101101.89
2019-05-30T21:25:15.989Z,101095.79
2019-05-30T21:27:45.320Z,101098.59
2019-05-30T21:30:15.033Z,101100.97
2019-05-30T21:32:46.277Z,101102.41
2019-05-30T21:35:15.617Z,101101.75
2019-05-30T21:37:45.819Z,101098.08
2019-05-30T21:40:15.122Z,101099.52
2019-05-30T21:42:57.842Z,101102.31
2019-05-30T21:45:15.293Z,101106.78
2019-05-30T21:47:44.823Z,101110.02
2019-05-30T21:50:15.885Z,101111.83
2019-05-30T21:52:46.328Z,101117.66
2019-05-30T21:55:18.002Z,101117.73
2019-05-30T21:57:48.138Z,101113.53
2019-05-30T22:00:18.800Z,101113.77
2019-05-30T22:02:53.288Z,101113.21
2019-05-30T22:05:22.763Z,101118.06
2019-05-30T22:07:51.829Z,101112.35
2019-05-30T22:10:21.115Z,101115.88
2019-05-30T22:12:50.361Z,101120.33
2019-05-30T22:15:19.573Z,101121.00
2019-05-30T22:17:49.849Z,101121.78
2019-05-30T22:20:18.978Z,101116.93
2019-05-30T22:22:48.240Z,101116.50
2019-05-30T22:25:17.297Z,101114.82
2019-05-30T22:27:46.806Z,101116.41
2019-05-30T22:30:15.982Z,101118.53
2019-05-30T22:32:45.096Z,101108.94
2019-05-30T22:35:14.275Z,101119.22
2019-05-30T22:37:44.703Z,101110.78
2019-05-30T22:40:13.798Z,101112.36
2019-05-30T22:42:44.053Z,101112.56
2019-05-30T22:45:13.466Z,101106.38
2019-05-30T22:47:42.732Z,101110.71
2019-05-30T22:50:11.906Z,101106.20
2019-05-30T22:52:40.933Z,101101.96
2019-05-30T22:55:10.145Z,101106.54
2019-05-30T22:57:39.448Z,101104.20
2019-05-30T23:00:08.964Z,101107.78
2019-05-30T23:02:38.123Z,101101.89
2019-05-30T23:05:07.232Z,101103.20
2019-05-30T23:07:36.346Z,101101.44
2019-05-30T23:10:05.869Z,101097.30
2019-05-30T23:12:34.953Z,101094.67
2019-05-30T23:15:04.358Z,101092.62
2019-05-30T23:17:33.419Z,101095.97
2019-05-30T23:20:02.495Z,101094.34
2019-05-30T23:22:31.551Z,101094.42
2019-05-30T23:25:00.635Z,101090.63
2019-05-30T23:27:29.922Z,101089.27
2019-05-30T23:29:59.112Z,101088.86
2019-05-30T23:32:28.373Z,101088.28
2019-05-30T23:34:58.660Z,101091.58
2019-05-30T23:37:27.788Z,101086.58
2019-05-30T23:39:57.030Z,101087.70
2019-05-30T23:42:26.123Z,101089.77
2019-05-30T23:44:55.522Z,101086.06
2019-05-30T23:47:24.651Z,101083.90
2019-05-30T23:49:53.946Z,101083.57
2019-05-30T23:52:23.436Z,101079.73
2019-05-30T23:54:52.582Z,101079.85
2019-05-30T23:57:21.633Z,101079.14
2019-05-30T23:59:52.701Z,101073.23
